createdAt,value
2019-04-28T00:00:05.121Z,1012.24
2019-04-28T00:01:05.120Z,1012.26
2019-04-28T00:02:05.103Z,1012.24
2019-04-28T00:03:05.063Z,1012.22
2019-04-28T00:04:05.052Z,1012.24
2019-04-28T00:05:05.023Z,1012.22
2019-04-28T00:06:05.006Z,1012.20
2019-04-28T00:07:05.002Z,1012.20
2019-04-28T00:08:04.967Z,1012.19
2019-04-28T00:09:04.943Z,1012.21
2019-04-28T00:10:04.931Z,1012.18
2019-04-28T00:11:04.912Z,1012.20
2019-04-28T00:12:04.886Z,1012.18
2019-04-28T00:13:04.884Z,1012.16
2019-04-28T00:14:04.846Z,1012.16
2019-04-28T00:15:04.826Z,1012.18
2019-04-28T00:16:04.816Z,1012.14
2019-04-28T00:17:04.791Z,1012.21
2019-04-28T00:18:04.785Z,1012.18
2019-04-28T00:19:05.698Z,1012.16
2019-04-28T00:20:04.731Z,1012.13
2019-04-28T00:21:04.712Z,1012.17
2019-04-28T00:22:04.691Z,1012.13
2019-04-28T00:23:06.966Z,1012.16
2019-04-28T00:24:04.667Z,1012.18
2019-04-28T00:25:04.649Z,1012.17
2019-04-28T00:26:04.631Z,1012.17
2019-04-28T00:27:04.598Z,1012.21
2019-04-28T00:28:04.575Z,1012.22
2019-04-28T00:29:04.548Z,1012.23
2019-04-28T00:30:04.542Z,1012.27
2019-04-28T00:31:04.512Z,1012.23
2019-04-28T00:32:04.512Z,1012.22
2019-04-28T00:33:04.481Z,1012.21
2019-04-28T00:34:04.460Z,1012.25
2019-04-28T00:35:04.455Z,1012.23
2019-04-28T00:36:04.420Z,1012.26
2019-04-28T00:37:04.409Z,1012.24
2019-04-28T00:38:04.378Z,1012.27
2019-04-28T00:39:04.358Z,1012.25
2019-04-28T00:40:04.339Z,1012.26
2019-04-28T00:41:04.334Z,1012.27
2019-04-28T00:42:04.301Z,1012.26
2019-04-28T00:43:04.405Z,1012.27
2019-04-28T00:44:04.262Z,1012.28
2019-04-28T00:45:04.249Z,1012.22
2019-04-28T00:46:04.246Z,1012.26
2019-04-28T00:47:04.204Z,1012.26
2019-04-28T00:48:04.190Z,1012.24
2019-04-28T00:49:04.162Z,1012.28
2019-04-28T00:50:04.146Z,1012.26
2019-04-28T00:51:04.127Z,1012.28
2019-04-28T00:52:04.124Z,1012.27
2019-04-28T00:53:04.084Z,1012.28
2019-04-28T00:54:04.066Z,1012.31
2019-04-28T00:55:04.046Z,1012.30
2019-04-28T00:56:04.028Z,1012.25
2019-04-28T00:57:04.028Z,1012.28
2019-04-28T00:58:03.996Z,1012.29
2019-04-28T00:59:03.965Z,1012.25
2019-04-28T01:00:03.974Z,1012.27
2019-04-28T01:01:03.924Z,1012.23
2019-04-28T01:02:03.916Z,1012.24
2019-04-28T01:03:03.909Z,1012.22
2019-04-28T01:04:03.871Z,1012.24
2019-04-28T01:05:03.848Z,1012.23
2019-04-28T01:06:03.833Z,1012.21
2019-04-28T01:07:03.872Z,1012.22
2019-04-28T01:08:03.810Z,1012.23
2019-04-28T01:09:03.899Z,1012.23
2019-04-28T01:10:03.752Z,1012.27
2019-04-28T01:11:03.746Z,1012.19
2019-04-28T01:12:03.714Z,1012.26
2019-04-28T01:13:03.694Z,1012.27
2019-04-28T01:14:03.696Z,1012.28
2019-04-28T01:15:04.930Z,1012.30
2019-04-28T01:16:03.636Z,1012.31
2019-04-28T01:17:03.639Z,1012.32
2019-04-28T01:18:03.593Z,1012.33
2019-04-28T01:19:03.655Z,1012.35
2019-04-28T01:20:03.557Z,1012.35
2019-04-28T01:21:03.557Z,1012.33
2019-04-28T01:22:03.519Z,1012.34
2019-04-28T01:23:03.507Z,1012.34
2019-04-28T01:24:03.477Z,1012.32
2019-04-28T01:25:03.502Z,1012.35
2019-04-28T01:26:03.457Z,1012.37
2019-04-28T01:27:03.421Z,1012.34
2019-04-28T01:28:03.398Z,1012.34
2019-04-28T01:29:03.382Z,1012.37
2019-04-28T01:30:09.139Z,1012.33
2019-04-28T01:31:03.354Z,1012.35
2019-04-28T01:32:03.315Z,1012.38
2019-04-28T01:33:03.308Z,1012.35
2019-04-28T01:34:03.285Z,1012.35
2019-04-28T01:35:03.267Z,1012.35
2019-04-28T01:36:03.258Z,1012.37
2019-04-28T01:37:03.232Z,1012.38
2019-04-28T01:38:03.204Z,1012.36
2019-04-28T01:39:03.188Z,1012.36
2019-04-28T01:40:03.166Z,1012.36
2019-04-28T01:41:03.162Z,1012.36
2019-04-28T01:42:03.127Z,1012.38
2019-04-28T01:43:03.117Z,1012.34
2019-04-28T01:44:03.082Z,1012.39
2019-04-28T01:45:03.062Z,1012.35
2019-04-28T01:46:03.043Z,1012.37
2019-04-28T01:47:03.041Z,1012.35
2019-04-28T01:48:03.007Z,1012.32
2019-04-28T01:49:02.994Z,1012.32
2019-04-28T01:50:02.984Z,1012.35
2019-04-28T01:51:02.950Z,1012.38
2019-04-28T01:52:02.927Z,1012.35
2019-04-28T01:53:02.903Z,1012.36
2019-04-28T01:54:02.884Z,1012.39
2019-04-28T01:55:02.873Z,1012.34
2019-04-28T01:56:02.864Z,1012.40
2019-04-28T01:57:02.825Z,1012.39
2019-04-28T01:58:02.823Z,1012.40
2019-04-28T01:59:02.789Z,1012.37
2019-04-28T02:00:02.768Z,1012.42
2019-04-28T02:01:02.766Z,1012.40
2019-04-28T02:02:02.729Z,1012.43
2019-04-28T02:03:02.711Z,1012.39
2019-04-28T02:04:02.694Z,1012.43
2019-04-28T02:05:02.679Z,1012.40
2019-04-28T02:06:02.648Z,1012.44
2019-04-28T02:07:02.649Z,1012.40
2019-04-28T02:08:02.609Z,1012.47
2019-04-28T02:09:02.586Z,1012.44
2019-04-28T02:10:02.577Z,1012.46
2019-04-28T02:11:02.552Z,1012.45
2019-04-28T02:12:02.557Z,1012.43
2019-04-28T02:13:02.514Z,1012.47
2019-04-28T02:14:02.496Z,1012.46
2019-04-28T02:15:02.476Z,1012.45
2019-04-28T02:16:02.455Z,1012.47
2019-04-28T02:17:02.435Z,1012.46
2019-04-28T02:18:02.431Z,1012.47
2019-04-28T02:19:02.394Z,1012.49
2019-04-28T02:20:02.371Z,1012.48
2019-04-28T02:21:02.371Z,1012.49
2019-04-28T02:22:02.336Z,1012.48
2019-04-28T02:23:02.313Z,1012.50
2019-04-28T02:24:02.294Z,1012.48
2019-04-28T02:25:02.300Z,1012.50
2019-04-28T02:26:02.254Z,1012.47
2019-04-28T02:27:02.240Z,1012.51
2019-04-28T02:28:02.279Z,1012.52
2019-04-28T02:29:02.192Z,1012.49
2019-04-28T02:30:02.194Z,1012.52
2019-04-28T02:31:02.479Z,1012.53
2019-04-28T02:32:02.654Z,1012.52
2019-04-28T02:33:02.118Z,1012.49
2019-04-28T02:34:02.098Z,1012.51
2019-04-28T02:35:02.097Z,1012.52
2019-04-28T02:36:02.151Z,1012.51
2019-04-28T02:37:02.199Z,1012.52
2019-04-28T02:38:02.016Z,1012.53
2019-04-28T02:39:01.997Z,1012.53
2019-04-28T02:40:03.556Z,1012.55
2019-04-28T02:41:01.971Z,1012.57
2019-04-28T02:42:02.081Z,1012.57
2019-04-28T02:43:01.916Z,1012.57
2019-04-28T02:44:01.927Z,1012.60
2019-04-28T02:45:01.885Z,1012.59
2019-04-28T02:46:01.869Z,1012.57
2019-04-28T02:47:01.843Z,1012.61
2019-04-28T02:48:01.832Z,1012.61
2019-04-28T02:49:01.796Z,1012.63
2019-04-28T02:50:01.829Z,1012.62
2019-04-28T02:51:01.770Z,1012.66
2019-04-28T02:52:03.083Z,1012.66
2019-04-28T02:53:02.129Z,1012.63
2019-04-28T02:54:01.698Z,1012.70
2019-04-28T02:55:02.987Z,1012.64
2019-04-28T02:56:01.660Z,1012.68
2019-04-28T02:57:01.656Z,1012.64
2019-04-28T02:58:01.841Z,1012.66
2019-04-28T02:59:01.598Z,1012.64
2019-04-28T03:00:01.580Z,1012.65
2019-04-28T03:01:11.142Z,1012.64
2019-04-28T03:02:01.539Z,1012.64
2019-04-28T03:03:01.793Z,1012.67
2019-04-28T03:04:01.498Z,1012.67
2019-04-28T03:05:01.509Z,1012.64
2019-04-28T03:06:01.832Z,1012.67
2019-04-28T03:07:01.582Z,1012.68
2019-04-28T03:08:01.465Z,1012.61
2019-04-28T03:09:01.397Z,1012.62
2019-04-28T03:10:03.866Z,1012.62
2019-04-28T03:11:01.361Z,1012.63
2019-04-28T03:12:01.688Z,1012.64
2019-04-28T03:13:01.571Z,1012.64
2019-04-28T03:14:01.303Z,1012.67
2019-04-28T03:15:01.278Z,1012.65
2019-04-28T03:16:01.840Z,1012.66
2019-04-28T03:17:01.246Z,1012.68
2019-04-28T03:18:02.081Z,1012.68
2019-04-28T03:19:01.501Z,1012.66
2019-04-28T03:20:01.484Z,1012.69
2019-04-28T03:21:04.245Z,1012.66
2019-04-28T03:22:01.522Z,1012.67
2019-04-28T03:23:01.303Z,1012.68
2019-04-28T03:24:01.347Z,1012.66
2019-04-28T03:25:01.112Z,1012.68
2019-04-28T03:26:01.528Z,1012.73
2019-04-28T03:27:03.496Z,1012.73
2019-04-28T03:28:01.024Z,1012.70
2019-04-28T03:29:01.133Z,1012.70
2019-04-28T03:30:01.144Z,1012.74
2019-04-28T03:31:06.472Z,1012.74
2019-04-28T03:32:22.087Z,1012.72
2019-04-28T03:33:10.643Z,1012.72
2019-04-28T03:34:03.994Z,1012.73
2019-04-28T03:35:02.863Z,1012.74
2019-04-28T03:36:07.120Z,1012.72
2019-04-28T03:37:00.842Z,1012.71
2019-04-28T03:38:01.345Z,1012.72
2019-04-28T03:39:00.902Z,1012.69
2019-04-28T03:40:00.823Z,1012.75
2019-04-28T03:41:01.103Z,1012.73
2019-04-28T03:42:00.736Z,1012.75
2019-04-28T03:43:03.208Z,1012.76
2019-04-28T03:44:00.747Z,1012.74
2019-04-28T03:45:01.125Z,1012.77
2019-04-28T03:46:03.407Z,1012.75
2019-04-28T03:47:03.032Z,1012.78
2019-04-28T03:48:00.617Z,1012.77
2019-04-28T03:49:00.938Z,1012.82
2019-04-28T03:50:00.583Z,1012.78
2019-04-28T03:51:00.818Z,1012.80
2019-04-28T03:52:00.553Z,1012.81
2019-04-28T03:53:01.195Z,1012.78
2019-04-28T03:54:02.978Z,1012.79
2019-04-28T03:55:00.691Z,1012.77
2019-04-28T03:56:01.639Z,1012.80
2019-04-28T03:57:01.251Z,1012.76
2019-04-28T03:58:01.025Z,1012.82
2019-04-28T03:59:00.581Z,1012.81
2019-04-28T04:00:01.467Z,1012.80
2019-04-28T04:01:02.973Z,1012.81
2019-04-28T04:02:03.144Z,1012.81
2019-04-28T04:03:00.911Z,1012.81
2019-04-28T04:04:01.243Z,1012.76
2019-04-28T04:05:00.800Z,1012.78
2019-04-28T04:06:00.928Z,1012.80
2019-04-28T04:07:01.449Z,1012.80
2019-04-28T04:08:01.024Z,1012.80
2019-04-28T04:09:00.450Z,1012.82
2019-04-28T04:10:00.920Z,1012.81
2019-04-28T04:11:00.447Z,1012.80
2019-04-28T04:12:00.373Z,1012.83
2019-04-28T04:13:00.906Z,1012.82
2019-04-28T04:14:01.659Z,1012.80
2019-04-28T04:15:01.442Z,1012.80
2019-04-28T04:16:01.644Z,1012.82
2019-04-28T04:17:00.227Z,1012.80
2019-04-28T04:18:01.296Z,1012.85
2019-04-28T04:19:00.729Z,1012.82
2019-04-28T04:20:01.846Z,1012.82
2019-04-28T04:21:00.776Z,1012.85
2019-04-28T04:22:00.400Z,1012.85
2019-04-28T04:23:01.366Z,1012.84
2019-04-28T04:24:01.057Z,1012.88
2019-04-28T04:25:01.302Z,1012.87
2019-04-28T04:26:01.827Z,1012.85
2019-04-28T04:27:00.818Z,1012.87
2019-04-28T04:28:03.225Z,1012.87
2019-04-28T04:29:00.973Z,1012.88
2019-04-28T04:30:01.625Z,1012.89
2019-04-28T04:31:02.530Z,1012.87
2019-04-28T04:32:13.415Z,1012.92
2019-04-28T04:33:01.198Z,1012.91
2019-04-28T04:34:00.742Z,1012.94
2019-04-28T04:35:00.674Z,1012.97
2019-04-28T04:36:01.581Z,1012.95
2019-04-28T04:37:00.684Z,1012.99
2019-04-28T04:38:00.546Z,1012.96
2019-04-28T04:39:01.860Z,1013.00
2019-04-28T04:40:01.492Z,1012.96
2019-04-28T04:41:01.433Z,1012.97
2019-04-28T04:42:00.636Z,1012.96
2019-04-28T04:43:01.639Z,1013.01
2019-04-28T04:44:01.052Z,1013.01
2019-04-28T04:45:00.492Z,1012.99
2019-04-28T04:46:01.463Z,1013.02
2019-04-28T04:47:00.993Z,1013.00
2019-04-28T04:48:00.617Z,1013.05
2019-04-28T04:49:00.713Z,1013.00
2019-04-28T04:50:00.225Z,1013.04
2019-04-28T04:51:00.773Z,1013.01
2019-04-28T04:52:00.403Z,1012.99
2019-04-28T04:52:59.435Z,1013.00
2019-04-28T04:54:01.105Z,1013.05
2019-04-28T04:55:01.306Z,1013.07
2019-04-28T04:56:00.361Z,1013.09
2019-04-28T04:57:00.086Z,1013.07
2019-04-28T04:58:00.756Z,1013.06
2019-04-28T04:59:00.399Z,1013.07
2019-04-28T04:59:59.970Z,1013.10
2019-04-28T05:01:00.712Z,1013.09
2019-04-28T05:02:01.716Z,1013.14
2019-04-28T05:03:00.837Z,1013.11
2019-04-28T05:03:59.640Z,1013.13
2019-04-28T05:05:00.421Z,1013.19
2019-04-28T05:06:00.140Z,1013.15
2019-04-28T05:06:59.717Z,1013.19
2019-04-28T05:08:00.347Z,1013.17
2019-04-28T05:08:59.930Z,1013.21
2019-04-28T05:09:59.548Z,1013.22
2019-04-28T05:11:00.026Z,1013.23
2019-04-28T05:11:59.784Z,1013.25
2019-04-28T05:13:00.201Z,1013.24
2019-04-28T05:13:59.684Z,1013.27
2019-04-28T05:15:00.485Z,1013.28
2019-04-28T05:15:59.797Z,1013.31
2019-04-28T05:17:00.654Z,1013.27
2019-04-28T05:18:00.207Z,1013.29
2019-04-28T05:19:00.032Z,1013.31
2019-04-28T05:19:59.705Z,1013.38
2019-04-28T05:20:59.456Z,1013.35
2019-04-28T05:22:00.020Z,1013.39
2019-04-28T05:23:00.274Z,1013.38
2019-04-28T05:23:59.615Z,1013.35
2019-04-28T05:25:00.088Z,1013.34
2019-04-28T05:26:03.347Z,1013.40
2019-04-28T05:26:59.591Z,1013.43
2019-04-28T05:28:01.332Z,1013.41
2019-04-28T05:28:59.531Z,1013.43
2019-04-28T05:30:02.555Z,1013.44
2019-04-28T05:31:00.064Z,1013.47
2019-04-28T05:31:59.699Z,1013.49
2019-04-28T05:33:00.252Z,1013.49
2019-04-28T05:34:00.015Z,1013.48
2019-04-28T05:35:00.173Z,1013.51
2019-04-28T05:36:01.834Z,1013.49
2019-04-28T05:37:00.537Z,1013.55
2019-04-28T05:37:59.763Z,1013.51
2019-04-28T05:39:00.118Z,1013.53
2019-04-28T05:40:00.662Z,1013.51
2019-04-28T05:41:02.341Z,1013.53
2019-04-28T05:41:58.343Z,1013.55
2019-04-28T05:43:00.505Z,1013.56
2019-04-28T05:43:59.609Z,1013.55
2019-04-28T05:44:59.967Z,1013.52
2019-04-28T05:46:00.159Z,1013.51
2019-04-28T05:46:59.558Z,1013.53
2019-04-28T05:47:59.423Z,1013.55
2019-04-28T05:48:59.663Z,1013.56
2019-04-28T05:49:59.875Z,1013.53
2019-04-28T05:50:59.873Z,1013.59
2019-04-28T05:51:58.162Z,1013.57
2019-04-28T05:52:58.124Z,1013.63
2019-04-28T05:53:59.498Z,1013.65
2019-04-28T05:54:59.722Z,1013.63
2019-04-28T05:55:59.949Z,1013.62
2019-04-28T05:56:59.736Z,1013.68
2019-04-28T05:57:59.859Z,1013.67
2019-04-28T05:58:58.011Z,1013.69
2019-04-28T06:00:01.046Z,1013.66
2019-04-28T06:01:00.120Z,1013.71
2019-04-28T06:01:57.950Z,1013.70
2019-04-28T06:02:57.947Z,1013.69
2019-04-28T06:03:57.909Z,1013.69
2019-04-28T06:04:59.819Z,1013.66
2019-04-28T06:05:59.826Z,1013.70
2019-04-28T06:06:59.656Z,1013.69
2019-04-28T06:07:59.546Z,1013.70
2019-04-28T06:08:59.700Z,1013.70
2019-04-28T06:09:57.813Z,1013.69
2019-04-28T06:10:57.769Z,1013.68
2019-04-28T06:12:00.008Z,1013.75
2019-04-28T06:12:59.633Z,1013.70
2019-04-28T06:13:59.757Z,1013.70
2019-04-28T06:14:57.707Z,1013.78
2019-04-28T06:15:57.674Z,1013.76
2019-04-28T06:16:57.653Z,1013.76
2019-04-28T06:17:57.717Z,1013.74
2019-04-28T06:18:57.609Z,1013.79
2019-04-28T06:19:57.589Z,1013.76
2019-04-28T06:20:57.585Z,1013.76
2019-04-28T06:21:57.642Z,1013.74
2019-04-28T06:22:57.527Z,1013.82
2019-04-28T06:23:57.511Z,1013.79
2019-04-28T06:24:57.490Z,1013.83
2019-04-28T06:25:57.664Z,1013.82
2019-04-28T06:26:57.450Z,1013.86
2019-04-28T06:27:57.449Z,1013.84
2019-04-28T06:28:57.412Z,1013.94
2019-04-28T06:29:57.394Z,1013.87
2019-04-28T06:30:57.378Z,1013.93
2019-04-28T06:31:57.355Z,1013.93
2019-04-28T06:33:07.229Z,1013.93
2019-04-28T06:33:57.312Z,1013.92
2019-04-28T06:34:57.309Z,1013.93
2019-04-28T06:35:57.275Z,1013.95
2019-04-28T06:36:57.253Z,1013.96
2019-04-28T06:37:57.239Z,1013.99
2019-04-28T06:38:57.209Z,1013.96
2019-04-28T06:39:57.210Z,1014.01
2019-04-28T06:40:57.173Z,1014.04
2019-04-28T06:41:57.166Z,1013.98
2019-04-28T06:42:57.151Z,1014.02
2019-04-28T06:43:57.121Z,1014.09
2019-04-28T06:44:57.096Z,1014.12
2019-04-28T06:45:57.075Z,1013.98
2019-04-28T06:46:57.053Z,1014.05
2019-04-28T06:47:57.028Z,1014.03
2019-04-28T06:48:57.030Z,1014.00
2019-04-28T06:49:57.017Z,1014.02
2019-04-28T06:50:56.976Z,1014.02
2019-04-28T06:51:56.955Z,1014.02
2019-04-28T06:52:56.950Z,1014.05
2019-04-28T06:53:56.916Z,1014.03
2019-04-28T06:54:56.890Z,1014.00
2019-04-28T06:55:56.870Z,1014.03
2019-04-28T06:56:56.870Z,1014.07
2019-04-28T06:57:56.855Z,1014.05
2019-04-28T06:58:59.148Z,1014.08
2019-04-28T06:59:56.815Z,1014.05
2019-04-28T07:00:56.775Z,1014.01
2019-04-28T07:01:56.778Z,1014.05
2019-04-28T07:02:56.739Z,1014.05
2019-04-28T07:03:56.713Z,1014.03
2019-04-28T07:05:01.928Z,1013.98
2019-04-28T07:05:56.678Z,1013.98
2019-04-28T07:06:56.656Z,1013.99
2019-04-28T07:07:56.653Z,1014.00
2019-04-28T07:08:56.621Z,1013.98
2019-04-28T07:09:56.602Z,1013.93
2019-04-28T07:10:56.602Z,1013.97
2019-04-28T07:11:56.560Z,1013.98
2019-04-28T07:12:56.538Z,1013.97
2019-04-28T07:13:56.522Z,1013.94
2019-04-28T07:14:56.653Z,1013.99
2019-04-28T07:15:56.488Z,1013.95
2019-04-28T07:16:56.486Z,1014.03
2019-04-28T07:17:59.771Z,1013.96
2019-04-28T07:18:56.435Z,1013.96
2019-04-28T07:19:56.481Z,1013.94
2019-04-28T07:20:56.383Z,1013.92
2019-04-28T07:21:56.370Z,1013.94
2019-04-28T07:22:56.354Z,1013.94
2019-04-28T07:23:56.329Z,1013.95
2019-04-28T07:24:56.326Z,1013.96
2019-04-28T07:25:56.286Z,1013.92
2019-04-28T07:26:56.266Z,1013.93
2019-04-28T07:27:56.259Z,1014.02
2019-04-28T07:28:56.237Z,1013.98
2019-04-28T07:29:56.204Z,1014.01
2019-04-28T07:30:56.188Z,1014.03
2019-04-28T07:31:56.191Z,1014.04
2019-04-28T07:32:56.192Z,1014.10
2019-04-28T07:33:56.132Z,1014.11
2019-04-28T07:34:56.109Z,1014.05
2019-04-28T07:35:56.093Z,1014.11
2019-04-28T07:36:56.074Z,1014.11
2019-04-28T07:37:56.063Z,1014.12
2019-04-28T07:38:56.047Z,1014.18
2019-04-28T07:39:56.822Z,1014.17
2019-04-28T07:40:55.991Z,1014.20
2019-04-28T07:41:55.972Z,1014.17
2019-04-28T07:42:55.965Z,1014.17
2019-04-28T07:45:38.203Z,1014.21
2019-04-28T07:46:38.210Z,1014.17
2019-04-28T07:47:38.173Z,1014.26
2019-04-28T07:48:38.166Z,1014.23
2019-04-28T07:49:38.126Z,1014.25
2019-04-28T07:50:38.125Z,1014.28
2019-04-28T07:51:38.088Z,1014.30
2019-04-28T07:54:20.201Z,1014.31
2019-04-28T07:55:20.200Z,1014.32
2019-04-28T07:56:20.166Z,1014.35
2019-04-28T07:57:20.208Z,1014.37
2019-04-28T07:58:20.134Z,1014.34
2019-04-28T07:59:20.106Z,1014.34
2019-04-28T08:00:20.089Z,1014.36
2019-04-28T08:01:20.097Z,1014.40
2019-04-28T08:02:20.071Z,1014.44
2019-04-28T08:03:20.111Z,1014.36
2019-04-28T08:04:20.828Z,1014.32
2019-04-28T08:05:20.815Z,1014.35
2019-04-28T08:06:20.058Z,1014.39
2019-04-28T08:07:20.056Z,1014.36
2019-04-28T08:08:20.004Z,1014.40
2019-04-28T08:09:20.341Z,1014.36
2019-04-28T08:10:20.041Z,1014.38
2019-04-28T08:11:20.825Z,1014.38
2019-04-28T08:12:20.013Z,1014.40
2019-04-28T08:13:20.812Z,1014.49
2019-04-28T08:14:20.744Z,1014.43
2019-04-28T08:15:19.940Z,1014.44
2019-04-28T08:16:19.882Z,1014.41
2019-04-28T08:17:19.796Z,1014.44
2019-04-28T08:18:19.765Z,1014.41
2019-04-28T08:19:19.734Z,1014.39
2019-04-28T08:20:19.754Z,1014.43
2019-04-28T08:21:19.718Z,1014.43
2019-04-28T08:22:20.321Z,1014.44
2019-04-28T08:23:19.710Z,1014.43
2019-04-28T08:24:19.664Z,1014.44
2019-04-28T08:25:19.619Z,1014.46
2019-04-28T08:26:19.632Z,1014.46
2019-04-28T08:27:19.679Z,1014.53
2019-04-28T08:28:19.561Z,1014.47
2019-04-28T08:29:19.554Z,1014.48
2019-04-28T08:30:19.524Z,1014.50
2019-04-28T08:31:19.517Z,1014.54
2019-04-28T08:32:19.487Z,1014.51
2019-04-28T08:33:19.514Z,1014.47
2019-04-28T08:34:19.450Z,1014.50
2019-04-28T08:35:19.433Z,1014.56
2019-04-28T08:36:19.414Z,1014.53
2019-04-28T08:37:19.424Z,1014.52
2019-04-28T08:38:19.378Z,1014.52
2019-04-28T08:39:19.370Z,1014.52
2019-04-28T08:40:19.345Z,1014.57
2019-04-28T08:41:19.354Z,1014.60
2019-04-28T08:42:19.306Z,1014.55
2019-04-28T08:43:19.316Z,1014.56
2019-04-28T08:44:19.273Z,1014.58
2019-04-28T08:45:19.260Z,1014.56
2019-04-28T08:46:19.239Z,1014.58
2019-04-28T08:47:19.233Z,1014.56
2019-04-28T08:48:19.203Z,1014.61
2019-04-28T08:49:19.196Z,1014.57
2019-04-28T08:50:19.159Z,1014.58
2019-04-28T08:51:19.158Z,1014.64
2019-04-28T08:52:19.135Z,1014.59
2019-04-28T08:53:19.113Z,1014.58
2019-04-28T08:54:19.090Z,1014.54
2019-04-28T08:55:19.064Z,1014.60
2019-04-28T08:56:19.064Z,1014.58
2019-04-28T08:57:19.044Z,1014.64
2019-04-28T08:58:19.043Z,1014.65
2019-04-28T08:59:19.012Z,1014.63
2019-04-28T09:00:18.978Z,1014.64
2019-04-28T09:01:18.956Z,1014.65
2019-04-28T09:02:18.938Z,1014.65
2019-04-28T09:03:18.917Z,1014.69
2019-04-28T09:04:18.916Z,1014.70
2019-04-28T09:05:18.886Z,1014.69
2019-04-28T09:06:18.865Z,1014.69
2019-04-28T09:07:18.882Z,1014.65
2019-04-28T09:08:18.835Z,1014.70
2019-04-28T09:09:18.822Z,1014.71
2019-04-28T09:10:18.790Z,1014.72
2019-04-28T09:11:18.768Z,1014.73
2019-04-28T09:12:18.754Z,1014.70
2019-04-28T09:13:18.732Z,1014.67
2019-04-28T09:14:18.720Z,1014.75
2019-04-28T09:15:18.724Z,1014.73
2019-04-28T09:16:18.686Z,1014.77
2019-04-28T09:17:18.661Z,1014.77
2019-04-28T09:18:18.661Z,1014.76
2019-04-28T09:19:18.623Z,1014.79
2019-04-28T09:20:18.604Z,1014.81
2019-04-28T09:21:18.588Z,1014.79
2019-04-28T09:22:18.575Z,1014.77
2019-04-28T09:25:00.740Z,1014.78
2019-04-28T09:26:00.720Z,1014.78
2019-04-28T09:27:00.701Z,1014.83
2019-04-28T09:28:00.668Z,1014.82
2019-04-28T09:29:00.649Z,1014.83
2019-04-28T09:31:42.752Z,1014.84
2019-04-28T09:32:42.707Z,1014.84
2019-04-28T09:33:42.692Z,1014.85
2019-04-28T09:34:42.672Z,1014.86
2019-04-28T09:35:42.717Z,1014.84
2019-04-28T09:36:42.641Z,1014.89
2019-04-28T09:37:42.771Z,1014.86
2019-04-28T09:38:42.614Z,1014.85
2019-04-28T09:39:42.585Z,1014.88
2019-04-28T09:40:42.559Z,1014.87
2019-04-28T09:41:42.545Z,1014.91
2019-04-28T09:42:42.538Z,1014.86
2019-04-28T09:43:42.505Z,1014.84
2019-04-28T09:44:42.488Z,1014.91
2019-04-28T09:45:42.468Z,1014.90
2019-04-28T09:46:42.449Z,1014.88
2019-04-28T09:47:42.431Z,1014.87
2019-04-28T09:48:42.446Z,1014.87
2019-04-28T09:49:42.398Z,1014.84
2019-04-28T09:50:42.375Z,1014.87
2019-04-28T09:51:42.373Z,1014.90
2019-04-28T09:52:42.340Z,1014.90
2019-04-28T09:53:42.336Z,1014.93
2019-04-28T09:54:42.300Z,1014.91
2019-04-28T09:55:42.278Z,1014.88
2019-04-28T09:56:42.260Z,1014.88
2019-04-28T09:57:42.251Z,1014.85
2019-04-28T09:58:42.249Z,1014.81
2019-04-28T09:59:42.228Z,1014.87
2019-04-28T10:00:42.221Z,1014.88
2019-04-28T10:01:42.186Z,1014.87
2019-04-28T10:02:42.157Z,1014.91
2019-04-28T10:03:42.140Z,1014.85
2019-04-28T10:04:42.413Z,1014.89
2019-04-28T10:05:42.125Z,1014.90
2019-04-28T10:08:28.262Z,1014.91
2019-04-28T10:09:28.218Z,1014.85
2019-04-28T10:10:28.201Z,1014.88
2019-04-28T10:11:30.746Z,1014.91
2019-04-28T10:12:28.768Z,1014.90
2019-04-28T10:13:28.163Z,1014.84
2019-04-28T10:14:28.151Z,1014.83
2019-04-28T10:15:28.106Z,1014.89
2019-04-28T10:16:28.094Z,1014.86
2019-04-28T10:17:28.082Z,1014.85
2019-04-28T10:18:28.059Z,1014.83
2019-04-28T10:19:28.069Z,1014.86
2019-04-28T10:20:28.026Z,1014.93
2019-04-28T10:21:28.021Z,1014.92
2019-04-28T10:22:27.986Z,1014.92
2019-04-28T10:23:27.973Z,1014.94
2019-04-28T10:24:27.947Z,1014.91
2019-04-28T10:25:27.949Z,1014.93
2019-04-28T10:26:27.924Z,1015.00
2019-04-28T10:27:27.905Z,1015.01
2019-04-28T10:28:27.884Z,1015.04
2019-04-28T10:29:27.879Z,1015.04
2019-04-28T10:30:27.875Z,1015.06
2019-04-28T10:31:27.844Z,1015.09
2019-04-28T10:32:27.805Z,1015.10
2019-04-28T10:33:27.788Z,1015.11
2019-04-28T10:34:27.767Z,1015.12
2019-04-28T10:35:27.769Z,1015.11
2019-04-28T10:36:27.753Z,1015.13
2019-04-28T10:37:27.737Z,1015.13
2019-04-28T10:38:27.709Z,1015.17
2019-04-28T10:39:27.688Z,1015.14
2019-04-28T10:40:27.668Z,1015.16
2019-04-28T10:41:27.657Z,1015.16
2019-04-28T10:42:27.623Z,1015.18
2019-04-28T10:43:27.622Z,1015.19
2019-04-28T10:44:27.616Z,1015.21
2019-04-28T10:45:27.586Z,1015.20
2019-04-28T10:46:27.552Z,1015.14
2019-04-28T10:47:27.529Z,1015.16
2019-04-28T10:48:27.525Z,1015.14
2019-04-28T10:49:27.509Z,1015.09
2019-04-28T10:50:27.473Z,1015.11
2019-04-28T10:51:27.462Z,1015.15
2019-04-28T10:52:27.464Z,1015.12
2019-04-28T10:53:27.437Z,1015.13
2019-04-28T10:54:27.429Z,1015.14
2019-04-28T10:55:27.379Z,1015.11
2019-04-28T10:56:27.385Z,1015.13
2019-04-28T10:57:27.351Z,1015.16
2019-04-28T10:58:27.335Z,1015.10
2019-04-28T10:59:27.302Z,1015.09
2019-04-28T11:00:27.304Z,1015.06
2019-04-28T11:01:27.271Z,1015.11
2019-04-28T11:02:27.244Z,1015.10
2019-04-28T11:03:27.233Z,1015.05
2019-04-28T11:04:27.204Z,1015.07
2019-04-28T11:05:27.196Z,1015.10
2019-04-28T11:06:27.186Z,1015.09
2019-04-28T11:07:28.778Z,1015.06
2019-04-28T11:08:27.136Z,1015.01
2019-04-28T11:09:30.780Z,1015.03
2019-04-28T11:10:27.106Z,1015.04
2019-04-28T11:11:27.097Z,1015.02
2019-04-28T11:12:27.064Z,1015.07
2019-04-28T11:13:27.060Z,1015.06
2019-04-28T11:14:27.028Z,1015.04
2019-04-28T11:15:27.026Z,1015.08
2019-04-28T11:16:27.007Z,1015.02
2019-04-28T11:19:09.251Z,1015.05
2019-04-28T11:20:09.236Z,1015.10
2019-04-28T11:21:09.241Z,1015.09
2019-04-28T11:22:09.218Z,1015.08
2019-04-28T11:23:09.174Z,1015.12
2019-04-28T11:24:09.156Z,1015.08
2019-04-28T11:25:09.143Z,1015.06
2019-04-28T11:26:09.133Z,1015.09
2019-04-28T11:27:09.118Z,1015.12
2019-04-28T11:28:09.103Z,1015.10
2019-04-28T11:29:09.072Z,1015.07
2019-04-28T11:30:09.054Z,1015.10
2019-04-28T11:31:09.033Z,1015.08
2019-04-28T11:32:09.021Z,1015.07
2019-04-28T11:33:09.021Z,1015.06
2019-04-28T11:34:08.976Z,1015.06
2019-04-28T11:35:20.926Z,1015.06
2019-04-28T11:36:08.960Z,1015.07
2019-04-28T11:37:08.928Z,1015.05
2019-04-28T11:38:08.906Z,1015.05
2019-04-28T11:39:08.915Z,1015.07
2019-04-28T11:40:08.880Z,1015.02
2019-04-28T11:41:11.502Z,1015.05
2019-04-28T11:42:08.835Z,1015.11
2019-04-28T11:43:08.823Z,1015.08
2019-04-28T11:44:08.799Z,1015.06
2019-04-28T11:45:08.819Z,1015.10
2019-04-28T11:46:08.771Z,1015.09
2019-04-28T11:47:08.759Z,1015.05
2019-04-28T11:48:08.726Z,1015.06
2019-04-28T11:49:08.712Z,1015.09
2019-04-28T11:50:08.706Z,1015.09
2019-04-28T11:51:08.703Z,1015.08
2019-04-28T11:52:08.673Z,1015.08
2019-04-28T11:53:08.645Z,1015.13
2019-04-28T11:54:08.623Z,1015.23
2019-04-28T11:55:08.764Z,1015.11
2019-04-28T11:56:08.583Z,1015.14
2019-04-28T11:57:08.599Z,1015.17
2019-04-28T11:58:08.585Z,1015.17
2019-04-28T11:59:08.551Z,1015.19
2019-04-28T12:00:08.517Z,1015.17
2019-04-28T12:01:08.523Z,1015.23
2019-04-28T12:02:08.482Z,1015.22
2019-04-28T12:03:08.476Z,1015.14
2019-04-28T12:04:08.451Z,1015.20
2019-04-28T12:05:08.431Z,1015.19
2019-04-28T12:06:08.434Z,1015.17
2019-04-28T12:07:08.400Z,1015.21
2019-04-28T12:10:04.362Z,1015.19
2019-04-28T12:10:54.755Z,1015.17
2019-04-28T12:11:54.725Z,1015.15
2019-04-28T12:12:54.741Z,1015.20
2019-04-28T12:13:54.711Z,1015.14
2019-04-28T12:14:54.672Z,1015.21
2019-04-28T12:15:54.655Z,1015.20
2019-04-28T12:16:58.675Z,1015.21